Iles-de-la-Madeleine, Canada
Current Conditions -  °F | °C
As of 11:00 PM on Saturday 20 Dec 2014 (Local Time) from CYGR Reporting Station
Overcast Overcast  
Wind Chill: 22°   Ceiling: 1800
Heat Index: 28°   Visibility: 15mi
Dew Point: 25°   Wind: 6mph
Humidity: 86%   Direction: 30°NNE
Pressure: 30.34"   Gusts: NA
Location:  47.42°N, 61.77°W
Report Text: CYGR 210300Z 03005KT 15SM OVC018 M02/M04 A3034 RMK SC8 LAST OBS/NEXT 211000 UTC SLP274
Loading
Personal Weather Stations






























Interactive Weather Map New forecast layout! Learn more

10-Day Weather Forecast

Advertisements
Track Severe Weather on mobile